createdAt,value
2023-01-17T00:02:08.826Z,99.90
2023-01-17T00:04:54.311Z,99.90
2023-01-17T00:07:41.413Z,99.90
2023-01-17T00:10:12.196Z,99.90
2023-01-17T00:12:46.740Z,99.90
2023-01-17T00:15:14.754Z,99.90
2023-01-17T00:17:42.733Z,99.90
2023-01-17T00:20:32.575Z,99.90
2023-01-17T00:23:18.105Z,99.90
2023-01-17T00:26:04.212Z,99.90
2023-01-17T00:28:34.417Z,99.90
2023-01-17T00:31:01.655Z,99.90
2023-01-17T00:33:28.889Z,99.90
2023-01-17T00:35:57.659Z,99.90
2023-01-17T00:38:26.295Z,99.90
2023-01-17T00:40:53.529Z,99.90
2023-01-17T00:43:41.507Z,99.90
2023-01-17T00:46:28.563Z,99.90
2023-01-17T00:49:13.780Z,99.90
2023-01-17T00:51:59.468Z,99.90
2023-01-17T00:54:45.039Z,99.90
2023-01-17T00:57:30.464Z,99.90
2023-01-17T01:00:16.104Z,99.90
2023-01-17T01:03:03.067Z,99.90
2023-01-17T01:05:48.595Z,99.90
2023-01-17T01:08:40.484Z,99.90
2023-01-17T01:11:28.509Z,99.90
2023-01-17T01:14:14.882Z,99.90
2023-01-17T01:17:00.616Z,99.90
2023-01-17T01:19:47.342Z,99.90
2023-01-17T01:22:32.853Z,99.90
2023-01-17T01:25:18.325Z,99.90
2023-01-17T01:28:03.665Z,99.90
2023-01-17T01:30:49.277Z,99.90
2023-01-17T01:33:18.937Z,99.90
2023-01-17T01:35:49.495Z,99.90
2023-01-17T01:38:18.082Z,99.90
2023-01-17T01:40:48.379Z,99.90
2023-01-17T01:43:19.713Z,99.90
2023-01-17T01:45:51.311Z,99.90
2023-01-17T01:48:34.632Z,99.90
2023-01-17T01:51:07.104Z,99.90
2023-01-17T01:53:38.067Z,99.90
2023-01-17T01:56:09.815Z,99.90
2023-01-17T01:58:39.079Z,99.90
2023-01-17T02:01:09.474Z,99.90
2023-01-17T02:03:40.855Z,99.90
2023-01-17T02:06:21.710Z,99.90
2023-01-17T02:08:50.331Z,99.90
2023-01-17T02:11:18.570Z,99.90
2023-01-17T02:13:46.593Z,99.90
2023-01-17T02:16:26.635Z,99.90
2023-01-17T02:19:01.145Z,99.90
2023-01-17T02:21:35.221Z,99.90
2023-01-17T02:24:40.927Z,99.90
2023-01-17T02:27:17.222Z,99.90
2023-01-17T02:30:14.881Z,99.90
2023-01-17T02:32:54.086Z,99.90
2023-01-17T02:35:30.936Z,99.90
2023-01-17T02:38:07.579Z,99.90
2023-01-17T02:40:40.545Z,99.90
2023-01-17T02:43:11.743Z,99.90
2023-01-17T02:45:39.823Z,99.90
2023-01-17T02:48:11.970Z,99.90
2023-01-17T02:50:59.100Z,99.90
2023-01-17T02:53:36.892Z,99.90
2023-01-17T02:56:13.127Z,99.90
2023-01-17T02:58:58.495Z,99.90
2023-01-17T03:01:31.755Z,99.90
2023-01-17T03:04:05.688Z,99.90
2023-01-17T03:06:37.691Z,99.90
2023-01-17T03:09:06.616Z,99.90
2023-01-17T03:11:35.019Z,99.90
2023-01-17T03:14:03.252Z,99.90
2023-01-17T03:16:34.150Z,99.90
2023-01-17T03:19:03.625Z,99.90
2023-01-17T03:21:31.713Z,99.90
2023-01-17T03:23:59.749Z,99.90
2023-01-17T03:26:27.983Z,99.90
2023-01-17T03:28:55.951Z,99.90
2023-01-17T03:31:23.889Z,99.90
2023-01-17T03:33:51.975Z,99.90
2023-01-17T03:36:21.293Z,99.90
2023-01-17T03:38:49.263Z,99.90
2023-01-17T03:41:17.273Z,99.90
2023-01-17T03:43:45.244Z,99.90
2023-01-17T03:46:20.729Z,99.90
2023-01-17T03:48:48.794Z,99.90
2023-01-17T03:51:17.188Z,99.90
2023-01-17T03:53:47.374Z,99.90
2023-01-17T03:56:15.702Z,99.90
2023-01-17T03:58:43.862Z,99.90
2023-01-17T04:01:12.328Z,99.90
2023-01-17T04:03:40.600Z,99.90
2023-01-17T04:06:08.867Z,99.90
2023-01-17T04:08:36.848Z,99.90
2023-01-17T04:11:06.417Z,99.90
2023-01-17T04:13:34.616Z,99.90
2023-01-17T04:16:02.610Z,99.90
2023-01-17T04:18:30.576Z,99.90
2023-01-17T04:20:58.575Z,99.90
2023-01-17T04:23:26.646Z,99.90
2023-01-17T04:25:54.631Z,99.90
2023-01-17T04:28:23.948Z,99.90
2023-01-17T04:30:51.941Z,99.90
2023-01-17T04:33:20.010Z,99.90
2023-01-17T04:35:48.020Z,99.90
2023-01-17T04:38:15.974Z,99.90
2023-01-17T04:40:43.946Z,99.90
2023-01-17T04:43:11.940Z,99.90
2023-01-17T04:45:41.308Z,99.90
2023-01-17T04:48:12.590Z,99.90
2023-01-17T04:50:41.000Z,99.90
2023-01-17T04:53:08.974Z,99.90
2023-01-17T04:55:36.937Z,99.90
2023-01-17T04:58:04.985Z,99.90
2023-01-17T05:00:33.009Z,99.90
2023-01-17T05:03:02.404Z,99.90
2023-01-17T05:05:30.943Z,99.90
2023-01-17T05:07:59.759Z,99.90
2023-01-17T05:10:27.941Z,99.90
2023-01-17T05:12:56.788Z,99.90
2023-01-17T05:15:26.079Z,99.90
2023-01-17T05:17:55.146Z,99.90
2023-01-17T05:20:26.979Z,99.90
2023-01-17T05:22:56.461Z,99.90
2023-01-17T05:25:24.567Z,99.90
2023-01-17T05:27:52.650Z,99.90
2023-01-17T05:30:21.772Z,99.90
2023-01-17T05:32:50.516Z,99.90
2023-01-17T05:35:19.722Z,99.90
2023-01-17T05:37:50.008Z,99.90
2023-01-17T05:40:18.701Z,99.90
2023-01-17T05:42:47.694Z,99.90
2023-01-17T05:45:17.703Z,99.90
2023-01-17T05:47:46.334Z,99.90
2023-01-17T05:50:15.915Z,99.90
2023-01-17T05:52:52.063Z,99.90
2023-01-17T05:55:20.774Z,99.90
2023-01-17T05:57:48.912Z,99.90
2023-01-17T06:00:17.445Z,99.90
2023-01-17T06:02:46.185Z,99.90
2023-01-17T06:05:14.640Z,99.90
2023-01-17T06:07:44.827Z,99.90
2023-01-17T06:10:15.413Z,99.90
2023-01-17T06:12:44.332Z,99.90
2023-01-17T06:15:13.072Z,99.90
2023-01-17T06:17:41.048Z,99.90
2023-01-17T06:20:11.336Z,99.90
2023-01-17T06:22:39.364Z,99.90
2023-01-17T06:25:08.026Z,99.90
2023-01-17T06:27:37.725Z,99.90
2023-01-17T06:30:06.773Z,99.90
2023-01-17T06:32:34.786Z,99.90
2023-01-17T06:35:02.792Z,99.90
2023-01-17T06:37:30.774Z,99.90
2023-01-17T06:39:58.766Z,99.90
2023-01-17T06:42:26.720Z,99.90
2023-01-17T06:44:56.079Z,99.90
2023-01-17T06:47:24.112Z,99.90
2023-01-17T06:49:52.117Z,99.90
2023-01-17T06:52:20.074Z,99.90
2023-01-17T06:54:48.073Z,99.90
2023-01-17T06:57:16.037Z,99.90
2023-01-17T06:59:43.992Z,99.90
2023-01-17T07:02:13.537Z,99.90
2023-01-17T07:04:41.517Z,99.90
2023-01-17T07:07:09.563Z,99.90
2023-01-17T07:09:37.585Z,99.90
2023-01-17T07:12:05.744Z,99.90
2023-01-17T07:14:33.986Z,99.90
2023-01-17T07:17:01.950Z,99.90
2023-01-17T07:19:31.304Z,99.90
2023-01-17T07:21:59.262Z,99.90
2023-01-17T07:24:27.227Z,99.90
2023-01-17T07:26:55.250Z,99.90
2023-01-17T07:29:23.220Z,99.90
2023-01-17T07:31:51.197Z,99.90
2023-01-17T07:34:19.151Z,99.90
2023-01-17T07:36:49.779Z,99.90
2023-01-17T07:39:17.835Z,99.90
2023-01-17T07:41:47.107Z,99.90
2023-01-17T07:44:15.509Z,99.90
2023-01-17T07:46:43.628Z,99.90
2023-01-17T07:49:11.792Z,99.90
2023-01-17T07:51:39.773Z,99.90
2023-01-17T07:54:09.120Z,99.90
2023-01-17T07:56:37.093Z,99.90
2023-01-17T07:59:05.045Z,99.90
2023-01-17T08:01:33.106Z,99.90
2023-01-17T08:04:01.161Z,99.90
2023-01-17T08:06:29.952Z,99.90
2023-01-17T08:08:59.524Z,99.90
2023-01-17T08:11:28.871Z,99.90
2023-01-17T08:13:59.359Z,99.90
2023-01-17T08:16:29.746Z,99.90
2023-01-17T08:18:58.209Z,99.90
2023-01-17T08:21:26.193Z,99.90
2023-01-17T08:23:54.304Z,99.90
2023-01-17T08:26:23.564Z,99.90
2023-01-17T08:28:56.259Z,99.90
2023-01-17T08:31:27.052Z,99.90
2023-01-17T08:33:55.068Z,99.90
2023-01-17T08:36:25.695Z,99.90
2023-01-17T08:38:53.812Z,99.90
2023-01-17T08:41:22.090Z,99.90
2023-01-17T08:43:50.482Z,99.90
2023-01-17T08:46:20.253Z,99.90
2023-01-17T08:48:48.233Z,99.90
2023-01-17T08:51:16.262Z,99.90
2023-01-17T08:53:44.214Z,99.90
2023-01-17T08:56:12.265Z,99.90
2023-01-17T08:58:41.517Z,99.90
2023-01-17T09:01:09.632Z,99.90
2023-01-17T09:03:40.893Z,99.90
2023-01-17T09:06:10.365Z,99.90
2023-01-17T09:08:39.397Z,99.90
2023-01-17T09:11:08.477Z,99.90
2023-01-17T09:13:36.686Z,99.90
2023-01-17T09:16:05.927Z,99.90
2023-01-17T09:18:34.965Z,99.90
2023-01-17T09:21:12.549Z,99.90
2023-01-17T09:23:40.540Z,99.90
2023-01-17T09:26:08.852Z,99.90
2023-01-17T09:28:41.079Z,99.80
2023-01-17T09:31:09.396Z,99.20
2023-01-17T09:33:37.648Z,99.30
2023-01-17T09:36:06.228Z,99.20
2023-01-17T09:38:35.648Z,99.00
2023-01-17T09:41:04.530Z,98.10
2023-01-17T09:43:41.464Z,97.90
2023-01-17T09:46:22.463Z,98.10
2023-01-17T09:48:51.939Z,98.00
2023-01-17T09:51:24.217Z,98.00
2023-01-17T09:53:54.246Z,97.70
2023-01-17T09:56:29.801Z,96.90
2023-01-17T09:59:19.213Z,97.50
2023-01-17T10:01:56.255Z,97.00
2023-01-17T10:04:49.148Z,96.90
2023-01-17T10:07:28.428Z,96.20
2023-01-17T10:10:27.237Z,96.20
2023-01-17T10:13:00.201Z,96.30
2023-01-17T10:15:54.660Z,96.40
2023-01-17T10:18:44.240Z,96.20
2023-01-17T10:21:17.845Z,96.00
2023-01-17T10:24:03.645Z,96.30
2023-01-17T10:26:35.201Z,96.30
2023-01-17T10:29:06.695Z,96.30
2023-01-17T10:31:41.656Z,96.60
2023-01-17T10:34:16.283Z,96.50
2023-01-17T10:36:48.805Z,96.10
2023-01-17T10:39:22.052Z,96.00
2023-01-17T10:41:56.881Z,96.10
2023-01-17T10:44:31.201Z,96.30
2023-01-17T10:47:08.012Z,96.00
2023-01-17T10:49:37.272Z,96.10
2023-01-17T10:52:16.860Z,96.00
2023-01-17T10:55:06.491Z,96.00
2023-01-17T10:57:42.040Z,96.30
2023-01-17T11:00:29.287Z,96.30
2023-01-17T11:02:57.488Z,96.00
2023-01-17T11:05:28.778Z,95.90
2023-01-17T11:08:01.694Z,95.80
2023-01-17T11:10:40.333Z,95.70
2023-01-17T11:13:24.750Z,95.80
2023-01-17T11:15:57.548Z,96.00
2023-01-17T11:18:28.725Z,95.50
2023-01-17T11:21:12.246Z,95.10
2023-01-17T11:23:42.412Z,95.00
2023-01-17T11:26:13.401Z,94.40
2023-01-17T11:28:42.969Z,94.40
2023-01-17T11:31:26.811Z,94.40
2023-01-17T11:34:15.770Z,94.10
2023-01-17T11:36:44.158Z,94.00
2023-01-17T11:39:27.565Z,93.20
2023-01-17T11:41:56.052Z,93.10
2023-01-17T11:44:27.604Z,93.00
2023-01-17T11:47:19.241Z,93.00
2023-01-17T11:49:48.874Z,92.50
2023-01-17T11:52:24.395Z,92.70
2023-01-17T11:54:55.268Z,92.50
2023-01-17T11:57:26.747Z,92.40
2023-01-17T12:00:04.950Z,91.40
2023-01-17T12:02:45.710Z,91.60
2023-01-17T12:05:34.250Z,91.90
2023-01-17T12:08:10.909Z,91.50
2023-01-17T12:10:49.497Z,91.80
2023-01-17T12:13:47.749Z,91.90
2023-01-17T12:16:31.217Z,91.70
2023-01-17T12:19:16.762Z,91.10
2023-01-17T12:21:57.096Z,90.90
2023-01-17T12:24:45.189Z,90.50
2023-01-17T12:27:20.790Z,90.20
2023-01-17T12:29:58.891Z,90.00
2023-01-17T12:32:50.455Z,90.70
2023-01-17T12:35:22.074Z,89.10
2023-01-17T12:38:04.425Z,87.90
2023-01-17T12:40:37.352Z,87.50
2023-01-17T12:43:14.442Z,87.70
2023-01-17T12:45:46.190Z,88.40
2023-01-17T12:48:19.211Z,88.30
2023-01-17T12:50:53.615Z,88.60
2023-01-17T12:53:28.169Z,89.40
2023-01-17T12:56:01.046Z,88.40
2023-01-17T12:58:35.147Z,87.60
2023-01-17T13:01:08.403Z,88.40
2023-01-17T13:03:47.466Z,88.30
2023-01-17T13:06:25.019Z,88.00
2023-01-17T13:08:57.589Z,86.60
2023-01-17T13:11:30.799Z,85.80
2023-01-17T13:13:59.924Z,85.00
2023-01-17T13:16:34.616Z,85.10
2023-01-17T13:19:12.532Z,85.10
2023-01-17T13:21:42.556Z,85.40
2023-01-17T13:24:30.171Z,85.40
2023-01-17T13:27:19.072Z,84.00
2023-01-17T13:30:00.703Z,83.40
2023-01-17T13:32:51.950Z,83.60
2023-01-17T13:35:42.059Z,83.10
2023-01-17T13:38:30.818Z,82.80
2023-01-17T13:41:08.793Z,82.70
2023-01-17T13:43:40.054Z,83.00
2023-01-17T13:46:08.541Z,83.10
2023-01-17T13:48:38.443Z,83.40
2023-01-17T13:51:08.950Z,82.60
2023-01-17T13:53:58.372Z,82.90
2023-01-17T13:56:44.084Z,83.30
2023-01-17T13:59:30.715Z,82.60
2023-01-17T14:01:59.046Z,81.90
2023-01-17T14:05:15.210Z,82.10
2023-01-17T14:07:48.648Z,82.20
2023-01-17T14:10:33.269Z,82.70
2023-01-17T14:13:02.242Z,83.00
2023-01-17T14:15:33.357Z,84.20
2023-01-17T14:18:03.188Z,84.40
2023-01-17T14:20:54.814Z,85.10
2023-01-17T14:23:30.282Z,85.60
2023-01-17T14:26:01.344Z,86.40
2023-01-17T14:28:33.566Z,86.90
2023-01-17T14:31:08.668Z,87.50
2023-01-17T14:33:39.704Z,87.80
2023-01-17T14:36:09.865Z,88.00
2023-01-17T14:38:43.794Z,88.40
2023-01-17T14:41:17.314Z,88.50
2023-01-17T14:43:46.427Z,89.00
2023-01-17T14:46:19.836Z,89.20
2023-01-17T14:48:47.923Z,89.30
2023-01-17T14:51:21.328Z,89.50
2023-01-17T14:53:58.440Z,89.60
2023-01-17T14:56:27.690Z,89.50
2023-01-17T14:59:06.877Z,89.70
2023-01-17T15:01:36.349Z,89.90
2023-01-17T15:04:04.867Z,90.00
2023-01-17T15:06:39.353Z,90.00
2023-01-17T15:09:13.441Z,90.10
2023-01-17T15:11:42.570Z,90.30
2023-01-17T15:14:18.459Z,90.40
2023-01-17T15:16:46.510Z,90.50
2023-01-17T15:19:15.914Z,90.60
2023-01-17T15:21:45.549Z,90.70
2023-01-17T15:24:20.734Z,90.80
2023-01-17T15:26:49.665Z,90.90
2023-01-17T15:29:24.647Z,91.10
2023-01-17T15:31:55.134Z,91.00
2023-01-17T15:34:28.123Z,91.00
2023-01-17T15:36:58.043Z,91.00
2023-01-17T15:39:30.309Z,91.10
2023-01-17T15:42:00.044Z,91.30
2023-01-17T15:44:47.057Z,91.60
2023-01-17T15:47:30.705Z,91.80
2023-01-17T15:49:59.926Z,91.40
2023-01-17T15:52:28.638Z,91.70
2023-01-17T15:55:12.512Z,92.00
2023-01-17T15:57:40.978Z,91.80
2023-01-17T16:00:21.926Z,92.00
2023-01-17T16:02:55.260Z,92.30
2023-01-17T16:05:38.709Z,92.40
2023-01-17T16:08:26.039Z,92.10
2023-01-17T16:10:59.172Z,92.70
2023-01-17T16:13:27.212Z,92.40
2023-01-17T16:15:55.260Z,92.30
2023-01-17T16:18:25.667Z,92.90
2023-01-17T16:20:59.984Z,92.60
2023-01-17T16:23:28.701Z,92.70
2023-01-17T16:25:58.091Z,92.90
2023-01-17T16:28:26.163Z,92.80
2023-01-17T16:30:54.635Z,93.00
2023-01-17T16:33:22.661Z,93.10
2023-01-17T16:35:51.236Z,93.30
2023-01-17T16:38:19.761Z,92.90
2023-01-17T16:40:48.604Z,92.80
2023-01-17T16:43:20.217Z,92.80
2023-01-17T16:45:50.411Z,93.00
2023-01-17T16:48:19.426Z,93.30
2023-01-17T16:50:50.698Z,93.70
2023-01-17T16:53:24.275Z,93.40
2023-01-17T16:55:57.582Z,93.00
2023-01-17T16:58:26.945Z,93.20
2023-01-17T17:00:56.598Z,93.80
2023-01-17T17:03:25.013Z,93.70
2023-01-17T17:05:57.493Z,93.80
2023-01-17T17:08:25.560Z,93.90
2023-01-17T17:10:53.617Z,93.70
2023-01-17T17:13:21.588Z,93.60
2023-01-17T17:15:51.082Z,93.60
2023-01-17T17:18:19.499Z,93.80
2023-01-17T17:20:49.562Z,93.90
2023-01-17T17:23:17.556Z,94.00
2023-01-17T17:25:45.565Z,94.00
2023-01-17T17:28:13.606Z,93.50
2023-01-17T17:30:41.584Z,94.00
2023-01-17T17:33:10.914Z,94.10
2023-01-17T17:35:38.905Z,93.80
2023-01-17T17:38:06.854Z,94.30
2023-01-17T17:40:35.592Z,94.60
2023-01-17T17:43:03.819Z,94.60
2023-01-17T17:45:31.783Z,94.60
2023-01-17T17:48:00.012Z,94.20
2023-01-17T17:50:29.385Z,94.30
2023-01-17T17:52:57.322Z,94.70
2023-01-17T17:55:25.373Z,94.50
2023-01-17T17:57:53.621Z,94.60
2023-01-17T18:00:23.128Z,94.50
2023-01-17T18:02:51.101Z,94.70
2023-01-17T18:05:19.098Z,94.30
2023-01-17T18:07:50.907Z,94.10
2023-01-17T18:10:19.222Z,94.00
2023-01-17T18:12:47.181Z,94.10
2023-01-17T18:15:15.308Z,93.90
2023-01-17T18:17:43.326Z,94.00
2023-01-17T18:20:12.281Z,93.90
2023-01-17T18:22:40.821Z,94.40
2023-01-17T18:25:12.665Z,94.40
2023-01-17T18:27:42.410Z,94.50
2023-01-17T18:30:12.487Z,95.00
2023-01-17T18:32:41.914Z,95.20
2023-01-17T18:35:10.653Z,95.50
2023-01-17T18:37:38.590Z,95.40
2023-01-17T18:40:08.111Z,95.40
2023-01-17T18:42:37.440Z,94.90
2023-01-17T18:45:06.309Z,95.20
2023-01-17T18:47:34.294Z,94.90
2023-01-17T18:50:02.282Z,95.00
2023-01-17T18:52:30.230Z,95.10
2023-01-17T18:54:58.192Z,95.30
2023-01-17T18:57:26.175Z,95.40
2023-01-17T18:59:55.481Z,95.80
2023-01-17T19:02:23.534Z,95.30
2023-01-17T19:04:51.570Z,95.80
2023-01-17T19:07:21.240Z,95.90
2023-01-17T19:09:49.204Z,95.30
2023-01-17T19:12:17.777Z,95.10
2023-01-17T19:14:46.592Z,95.20
2023-01-17T19:17:15.919Z,95.50
2023-01-17T19:19:43.871Z,96.00
2023-01-17T19:22:12.045Z,96.30
2023-01-17T19:24:40.770Z,96.20
2023-01-17T19:27:08.768Z,96.00
2023-01-17T19:29:37.080Z,95.70
2023-01-17T19:32:05.173Z,95.90
2023-01-17T19:34:34.635Z,96.00
2023-01-17T19:37:03.013Z,95.90
2023-01-17T19:39:31.538Z,95.60
2023-01-17T19:41:59.488Z,95.60
2023-01-17T19:44:27.552Z,95.70
2023-01-17T19:46:57.473Z,95.90
2023-01-17T19:49:25.452Z,95.50
2023-01-17T19:51:54.770Z,95.70
2023-01-17T19:54:23.391Z,96.00
2023-01-17T19:56:51.395Z,96.40
2023-01-17T19:59:20.104Z,95.90
2023-01-17T20:01:49.059Z,95.90
2023-01-17T20:04:18.067Z,95.90
2023-01-17T20:06:47.344Z,96.30
2023-01-17T20:09:16.696Z,96.40
2023-01-17T20:11:45.549Z,96.90
2023-01-17T20:14:15.194Z,97.00
2023-01-17T20:16:43.588Z,96.80
2023-01-17T20:19:11.677Z,97.10
2023-01-17T20:21:39.696Z,97.00
2023-01-17T20:24:08.923Z,96.70
2023-01-17T20:26:38.276Z,97.10
2023-01-17T20:29:10.155Z,96.80
2023-01-17T20:31:39.324Z,96.50
2023-01-17T20:34:08.116Z,97.00
2023-01-17T20:36:36.996Z,96.80
2023-01-17T20:39:06.501Z,96.10
2023-01-17T20:41:35.938Z,96.40
2023-01-17T20:44:06.763Z,96.60
2023-01-17T20:46:40.409Z,96.30
2023-01-17T20:49:13.377Z,95.90
2023-01-17T20:51:41.837Z,95.90
2023-01-17T20:54:12.973Z,95.60
2023-01-17T20:56:41.548Z,95.50
2023-01-17T20:59:14.497Z,95.30
2023-01-17T21:01:43.687Z,95.20
2023-01-17T21:04:12.970Z,94.20
2023-01-17T21:06:42.873Z,94.90
2023-01-17T21:09:12.963Z,94.80
2023-01-17T21:11:41.049Z,94.40
2023-01-17T21:14:10.643Z,94.20
2023-01-17T21:16:38.701Z,94.00
2023-01-17T21:19:09.219Z,93.90
2023-01-17T21:21:37.214Z,94.20
2023-01-17T21:24:06.018Z,93.90
2023-01-17T21:26:34.105Z,94.00
2023-01-17T21:29:02.231Z,94.10
2023-01-17T21:31:34.755Z,94.80
2023-01-17T21:34:04.962Z,94.30
2023-01-17T21:36:34.489Z,95.00
2023-01-17T21:39:05.234Z,95.50
2023-01-17T21:41:35.513Z,95.30
2023-01-17T21:44:05.110Z,95.40
2023-01-17T21:46:37.463Z,94.90
2023-01-17T21:49:05.644Z,94.30
2023-01-17T21:52:00.616Z,94.30
2023-01-17T21:54:47.702Z,94.40
2023-01-17T21:57:35.036Z,93.90
2023-01-17T22:00:03.639Z,93.80
2023-01-17T22:02:33.052Z,94.80
2023-01-17T22:05:01.038Z,94.50
2023-01-17T22:07:29.218Z,95.20
2023-01-17T22:09:57.775Z,95.50
2023-01-17T22:12:25.911Z,95.90
2023-01-17T22:14:54.444Z,95.30
2023-01-17T22:17:22.427Z,95.30
2023-01-17T22:19:51.744Z,95.30
2023-01-17T22:22:19.783Z,95.00
2023-01-17T22:24:47.780Z,95.50
2023-01-17T22:27:15.810Z,95.00
2023-01-17T22:29:43.764Z,95.20
2023-01-17T22:32:11.792Z,95.10
2023-01-17T22:34:39.741Z,95.40
2023-01-17T22:37:11.057Z,95.10
2023-01-17T22:39:39.572Z,95.60
2023-01-17T22:42:08.358Z,95.50
2023-01-17T22:44:36.358Z,95.80
2023-01-17T22:47:04.322Z,95.70
2023-01-17T22:49:32.357Z,95.40
2023-01-17T22:52:00.313Z,95.40
2023-01-17T22:54:29.705Z,95.50
2023-01-17T22:56:58.801Z,95.80
2023-01-17T22:59:26.800Z,95.80
2023-01-17T23:01:55.016Z,96.20
2023-01-17T23:04:23.003Z,96.60
2023-01-17T23:06:50.983Z,96.80
2023-01-17T23:09:19.054Z,96.90
2023-01-17T23:11:52.050Z,96.80
2023-01-17T23:14:21.708Z,96.60
2023-01-17T23:17:11.836Z,96.90
2023-01-17T23:19:42.100Z,97.00
2023-01-17T23:22:19.291Z,97.40
2023-01-17T23:24:52.043Z,97.80
2023-01-17T23:27:42.103Z,98.20
2023-01-17T23:30:13.045Z,98.30
2023-01-17T23:32:44.619Z,98.40
2023-01-17T23:35:12.884Z,98.70
2023-01-17T23:37:58.661Z,99.10
2023-01-17T23:40:26.657Z,99.30
2023-01-17T23:43:13.380Z,99.90
2023-01-17T23:45:41.403Z,99.90
2023-01-17T23:48:10.755Z,99.90
2023-01-17T23:50:39.817Z,99.90
2023-01-17T23:53:08.278Z,99.90
2023-01-17T23:55:37.561Z,99.90
2023-01-17T23:58:07.886Z,99.90
